Time;durP1;ratioP1;P1;durP2;ratioP2;P2;SDS_P1;SDS_P2;PMS_P1;PMS_P2;Temp;Humidity;BMP_temperature;BMP_pressure;BME280_temperature;BME280_humidity;BME280_pressure;Samples;Min_cycle;Max_cycle;Signal;HPM_P1;HPM_P2
2021/10/28 00:14:24;;;;;;;25.20;10.73;;;;;;;;;;10525168;28;20044;-70
2021/10/28 00:19:28;;;;;;;28.75;11.23;;;;;;;;;;10526046;28;20047;-72
2021/10/28 00:24:31;;;;;;;28.90;11.55;;;;;;;;;;10518773;28;20064;-73
2021/10/28 00:29:34;;;;;;;22.38;9.63;;;;;;;;;;10520757;28;20043;-71
2021/10/28 00:34:38;;;;;;;26.83;11.05;;;;;;;;;;10505230;28;20044;-71
2021/10/28 00:39:41;;;;;;;15.25;6.57;;;;;;;;;;10513610;28;20064;-74
2021/10/28 00:44:45;;;;;;;29.57;11.13;;;;;;;;;;10513066;28;20046;-72
2021/10/28 00:49:49;;;;;;;27.15;10.57;;;;;;;;;;10519433;28;20040;-73
2021/10/28 00:54:51;;;;;;;;;;;;;;;;;;10518673;28;20067;-71
2021/10/28 00:59:54;;;;;;;26.60;10.60;;;;;;;;;;10506490;28;19981;-72
2021/10/28 01:04:59;;;;;;;29.95;11.38;;;;;;;;;;10514676;28;20089;-71
2021/10/28 01:10:03;;;;;;;24.88;10.50;;;;;;;;;;10514530;28;20452;-72
2021/10/28 01:15:12;;;;;;;43.00;20.63;;;;;;;;;;10502209;28;20460;-69
2021/10/28 01:20:36;;;;;;;35.63;12.88;;;;;;;;;;10520236;28;20058;-70
2021/10/28 01:25:39;;;;;;;;;;;;;;;;;;10515214;28;20044;-72
2021/10/28 01:30:46;;;;;;;28.08;10.80;;;;;;;;;;10519069;28;19927;-70
2021/10/28 01:36:11;;;;;;;27.77;11.15;;;;;;;;;;10513272;28;20427;-72
2021/10/28 01:41:14;;;;;;;30.73;12.30;;;;;;;;;;10513801;28;20266;-73
2021/10/28 01:46:17;;;;;;;26.92;10.63;;;;;;;;;;10513361;28;20087;-72
2021/10/28 01:51:23;;;;;;;21.40;9.48;;;;;;;;;;10515234;28;20199;-72
2021/10/28 01:56:26;;;;;;;24.38;9.98;;;;;;;;;;10510580;28;20123;-73
2021/10/28 02:01:28;;;;;;;29.65;10.60;;;;;;;;;;10513293;28;20064;-72
2021/10/28 02:06:33;;;;;;;22.17;9.77;;;;;;;;;;10510249;28;20036;-72
2021/10/28 02:11:36;;;;;;;27.52;11.13;;;;;;;;;;10514460;28;20146;-72
2021/10/28 02:16:39;;;;;;;23.10;10.02;;;;;;;;;;10516791;28;20036;-70
2021/10/28 02:21:41;;;;;;;;;;;;;;;;;;10518081;28;20533;-71
2021/10/28 02:26:44;;;;;;;;;;;;;;;;;;10516519;28;19931;-73
2021/10/28 02:31:47;;;;;;;;;;;;;;;;;;10521248;28;19931;-73
2021/10/28 02:36:51;;;;;;;24.80;10.13;;;;;;;;;;10513963;28;20647;-72
2021/10/28 02:41:54;;;;;;;23.55;9.57;;;;;;;;;;10518023;28;20469;-71
2021/10/28 02:46:57;;;;;;;20.70;8.20;;;;;;;;;;10512906;28;20105;-72
2021/10/28 02:52:01;;;;;;;21.05;6.38;;;;;;;;;;10519600;28;20082;-72
2021/10/28 02:57:04;;;;;;;28.83;10.27;;;;;;;;;;10511326;28;20345;-71
2021/10/28 03:02:07;;;;;;;27.17;10.93;;;;;;;;;;10513202;28;20125;-70
2021/10/28 03:07:12;;;;;;;23.83;9.67;;;;;;;;;;10515658;28;20097;-72
2021/10/28 03:12:15;;;;;;;23.33;8.68;;;;;;;;;;10521701;28;20404;-71
2021/10/28 03:17:27;;;;;;;28.88;10.38;;;;;;;;;;10522990;28;20049;-72
2021/10/28 03:27:52;;;;;;;28.05;10.73;;;;;;;;;;10517304;28;20040;-71
2021/10/28 03:32:55;;;;;;;27.58;11.15;;;;;;;;;;10513922;28;20606;-73
2021/10/28 03:38:06;;;;;;;24.15;10.38;;;;;;;;;;10517060;28;20454;-73
2021/10/28 03:48:44;;;;;;;29.48;9.23;;;;;;;;;;10507268;28;20060;-72
2021/10/28 04:31:30;;;;;;;25.17;8.88;;;;;;;;;;10515635;28;20040;-71
2021/10/28 04:36:33;;;;;;;;;;;;;;;;;;10516338;28;20063;-73
2021/10/28 04:41:36;;;;;;;;;;;;;;;;;;10510143;28;19977;-72
2021/10/28 04:46:38;;;;;;;;;;;;;;;;;;10511458;28;19927;-72
2021/10/28 04:51:42;;;;;;;;;;;;;;;;;;10514398;28;19931;-71
2021/10/28 04:56:45;;;;;;;;;;;;;;;;;;10512808;28;19997;-73
2021/10/28 05:01:47;;;;;;;;;;;;;;;;;;10512061;28;19927;-72
2021/10/28 05:06:50;;;;;;;;;;;;;;;;;;10513809;28;19926;-72
2021/10/28 05:11:52;;;;;;;;;;;;;;;;;;10512984;28;19931;-71
2021/10/28 05:16:58;;;;;;;;;;;;;;;;;;10519627;28;19920;-69
2021/10/28 05:22:00;;;;;;;;;;;;;;;;;;10517025;28;19959;-71
2021/10/28 05:27:05;;;;;;;18.85;8.35;;;;;;;;;;10521369;28;19977;-73
2021/10/28 05:32:28;;;;;;;;;;;;;;;;;;10517305;28;20222;-72
2021/10/28 05:37:30;;;;;;;;;;;;;;;;;;10520667;28;19969;-72
2021/10/28 05:42:35;;;;;;;;;;;;;;;;;;10512702;28;20367;-72
2021/10/28 05:47:37;;;;;;;;;;;;;;;;;;10513933;28;19955;-72
2021/10/28 05:52:56;;;;;;;;;;;;;;;;;;10510049;28;19959;-72
2021/10/28 05:57:58;;;;;;;;;;;;;;;;;;10521280;28;20364;-73
2021/10/28 06:03:01;;;;;;;;;;;;;;;;;;10524294;28;20476;-72
2021/10/28 06:08:06;;;;;;;;;;;;;;;;;;10526707;28;19928;-73
2021/10/28 06:13:09;;;;;;;;;;;;;;;;;;10529964;28;20011;-70
2021/10/28 06:18:36;;;;;;;;;;;;;;;;;;10528996;28;20006;-73
2021/10/28 06:23:38;;;;;;;;;;;;;;;;;;10517955;28;19920;-73
2021/10/28 06:28:41;;;;;;;;;;;;;;;;;;10521482;28;20010;-73
2021/10/28 06:33:51;;;;;;;;;;;;;;;;;;10517354;28;20503;-72
2021/10/28 06:38:53;;;;;;;;;;;;;;;;;;10518524;28;20249;-71
2021/10/28 06:43:59;;;;;;;;;;;;;;;;;;10519219;28;19931;-73
2021/10/28 06:49:04;;;;;;;;;;;;;;;;;;10513436;28;19923;-73
2021/10/28 06:54:10;;;;;;;;;;;;;;;;;;10513889;28;19928;-72
2021/10/28 07:04:33;;;;;;;;;;;;;;;;;;10527001;28;19931;-72
2021/10/28 07:09:39;;;;;;;25.33;8.30;;;;;;;;;;10526912;28;20036;-72
2021/10/28 07:14:46;;;;;;;36.80;16.15;;;;;;;;;;10520190;28;20425;-71
2021/10/28 07:20:18;;;;;;;38.25;16.83;;;;;;;;;;10518870;28;20425;-73
2021/10/28 07:25:37;;;;;;;32.40;12.27;;;;;;;;;;10517219;28;20073;-73
2021/10/28 07:31:02;;;;;;;29.08;11.98;;;;;;;;;;10525041;28;20090;-73
2021/10/28 08:19:28;;;;;;;32.10;10.07;;;;;;;;;;10543360;27;20431;-71
2021/10/28 08:28:39;;;;;;;24.00;9.68;;;;;;;;;;10518993;28;20040;-75
2021/10/28 08:30:00;;;;;;;7.28;3.58;;;;;;;;;;10519994;28;20080;-72
2021/10/28 08:35:05;;;;;;;25.20;10.90;;;;;;;;;;10516531;28;20698;-73
2021/10/28 08:40:10;;;;;;;24.33;10.23;;;;;;;;;;10519688;28;20048;-71
2021/10/28 08:45:15;;;;;;;26.63;10.55;;;;;;;;;;10526423;28;20091;-72
2021/10/28 08:50:24;;;;;;;21.85;8.82;;;;;;;;;;10525637;28;20151;-72
2021/10/28 08:55:32;;;;;;;19.95;9.45;;;;;;;;;;10524879;28;20060;-73
2021/10/28 09:27:58;;;;;;;18.77;11.00;;;;;;;;;;10502597;28;20086;-73
2021/10/28 09:33:06;;;;;;;19.52;11.80;;;;;;;;;;10490108;28;20060;-74
2021/10/28 09:43:48;;;;;;;19.30;12.55;;;;;;;;;;10488570;28;20066;-73
2021/10/28 09:54:27;;;;;;;19.38;13.18;;;;;;;;;;10484491;28;20397;-73
2021/10/28 09:59:31;;;;;;;19.77;13.40;;;;;;;;;;10490388;28;20032;-73
2021/10/28 10:04:34;;;;;;;17.83;13.02;;;;;;;;;;10486936;28;20286;-73
2021/10/28 10:09:39;;;;;;;20.05;13.15;;;;;;;;;;10486973;28;20044;-74
2021/10/28 10:14:42;;;;;;;19.55;13.50;;;;;;;;;;10488621;28;20052;-70
2021/10/28 10:19:48;;;;;;;18.55;14.02;;;;;;;;;;10487038;28;20048;-74
2021/10/28 10:25:06;;;;;;;18.05;13.90;;;;;;;;;;10483245;28;20044;-72
2021/10/28 11:02:56;;;;;;;17.23;13.52;;;;;;;;;;10474442;28;20266;-72
2021/10/28 11:03:26;;;;;;;17.40;13.05;;;;;;;;;;10484683;28;20409;-74
2021/10/28 11:20:07;;;;;;;16.23;13.18;;;;;;;;;;10484957;28;20488;-75
2021/10/28 11:30:56;;;;;;;19.20;13.77;;;;;;;;;;10480952;28;20044;-73
2021/10/28 12:46:21;;;;;;;18.48;13.05;;;;;;;;;;10474340;28;20007;-72
2021/10/28 12:51:40;;;;;;;20.40;12.68;;;;;;;;;;10473579;28;20048;-73
2021/10/28 12:57:02;;;;;;;;;;;;;;;;;;10482233;28;20129;-74
2021/10/28 13:50:42;;;;;;;19.85;10.73;;;;;;;;;;10486736;28;20530;-72
2021/10/28 14:33:53;;;;;;;;;;;;;;;;;;10461291;28;19939;-71
2021/10/28 15:38:05;;;;;;;;;;;;;;;;;;10587864;27;19963;-73
2021/10/28 15:43:38;;;;;;;;;;;;;;;;;;10508300;28;19936;-70
2021/10/28 16:26:10;;;;;;;20.75;9.45;;;;;;;;;;10512076;28;20447;-72
2021/10/28 16:31:14;;;;;;;24.02;10.77;;;;;;;;;;10519414;28;20044;-70
2021/10/28 16:36:18;;;;;;;;;;;;;;;;;;10518818;28;20122;-72
2021/10/28 16:41:21;;;;;;;;;;;;;;;;;;10517423;28;19920;-70
2021/10/28 16:46:24;;;;;;;;;;;;;;;;;;10504673;28;19924;-72
2021/10/28 16:51:27;;;;;;;;;;;;;;;;;;10490714;28;20123;-72
2021/10/28 16:56:29;;;;;;;;;;;;;;;;;;10489734;28;20011;-72
2021/10/28 17:01:32;;;;;;;;;;;;;;;;;;10517424;28;19920;-72
2021/10/28 17:06:35;;;;;;;;;;;;;;;;;;10486162;28;21186;-72
2021/10/28 17:11:37;;;;;;;;;;;;;;;;;;10486316;28;19920;-72
2021/10/28 17:16:46;;;;;;;24.48;9.23;;;;;;;;;;10488432;28;19963;-71
2021/10/28 17:21:49;;;;;;;25.00;9.23;;;;;;;;;;10490352;28;20071;-71
2021/10/28 17:26:52;;;;;;;39.72;19.67;;;;;;;;;;10488308;28;20419;-71
2021/10/28 17:31:57;;;;;;;42.60;20.25;;;;;;;;;;10485728;28;20419;-72
2021/10/28 17:37:00;;;;;;;39.22;19.67;;;;;;;;;;10487332;28;20435;-72
2021/10/28 17:42:03;;;;;;;40.13;20.05;;;;;;;;;;10487834;28;20483;-71
2021/10/28 17:47:08;;;;;;;40.78;19.45;;;;;;;;;;10486600;28;20428;-72
2021/10/28 17:52:11;;;;;;;40.83;20.43;;;;;;;;;;10487659;28;20484;-68
2021/10/28 17:57:14;;;;;;;41.75;20.80;;;;;;;;;;10485057;28;20865;-71
2021/10/28 18:02:19;;;;;;;42.85;20.60;;;;;;;;;;10480892;28;20417;-71
2021/10/28 18:07:22;;;;;;;43.07;20.60;;;;;;;;;;10475512;28;20425;-72
2021/10/28 18:12:26;;;;;;;41.45;20.77;;;;;;;;;;10485485;28;20477;-72
2021/10/28 18:17:32;;;;;;;42.20;20.08;;;;;;;;;;10479971;28;20439;-71
2021/10/28 18:22:37;;;;;;;41.78;20.45;;;;;;;;;;10476860;28;20419;-71
2021/10/28 18:27:41;;;;;;;42.65;20.52;;;;;;;;;;10473817;28;20412;-70
2021/10/28 18:32:45;;;;;;;39.65;20.05;;;;;;;;;;10475050;28;20419;-73
2021/10/28 18:37:49;;;;;;;44.85;20.83;;;;;;;;;;10480077;28;20442;-72
2021/10/28 18:42:52;;;;;;;41.60;20.33;;;;;;;;;;10483340;28;20473;-73
2021/10/28 18:47:56;;;;;;;40.38;19.25;;;;;;;;;;10480305;28;20429;-73
2021/10/28 18:52:59;;;;;;;;;;;;;;;;;;10483594;28;20334;-74
2021/10/28 18:58:02;;;;;;;35.20;14.77;;;;;;;;;;10486686;28;19944;-73
2021/10/28 19:03:06;;;;;;;27.75;12.20;;;;;;;;;;10493457;28;20047;-73
2021/10/28 19:08:10;;;;;;;24.08;10.35;;;;;;;;;;10475378;28;20120;-72
2021/10/28 19:13:13;;;;;;;23.02;9.82;;;;;;;;;;10487953;28;20512;-70
2021/10/28 19:18:38;;;;;;;22.73;9.50;;;;;;;;;;10483632;28;20037;-73
2021/10/28 19:24:01;;;;;;;26.15;10.70;;;;;;;;;;10482531;28;20128;-74
2021/10/28 19:29:26;;;;;;;29.23;10.70;;;;;;;;;;10478818;28;20128;-74
2021/10/28 19:34:35;;;;;;;28.25;10.38;;;;;;;;;;10484389;28;20052;-76
2021/10/28 19:50:21;;;;;;;24.05;9.63;;;;;;;;;;10478196;28;20048;-71
2021/10/28 19:55:24;;;;;;;29.25;10.38;;;;;;;;;;10482185;28;20045;-71
2021/10/28 20:00:32;;;;;;;25.42;9.18;;;;;;;;;;10483447;28;20423;-71
2021/10/28 20:05:46;;;;;;;19.15;7.97;;;;;;;;;;10480845;28;20052;-72
2021/10/28 20:21:32;;;;;;;22.42;8.65;;;;;;;;;;10481704;28;20048;-73
2021/10/28 20:26:34;;;;;;;22.02;9.80;;;;;;;;;;10486349;28;20040;-72
2021/10/28 20:31:37;;;;;;;19.73;8.40;;;;;;;;;;10487025;28;20113;-72
2021/10/28 20:42:02;;;;;;;18.80;8.57;;;;;;;;;;10481200;28;20142;-71
2021/10/28 20:47:05;;;;;;;20.90;8.70;;;;;;;;;;10493112;28;20123;-71
2021/10/28 20:52:12;;;;;;;22.87;9.20;;;;;;;;;;10491342;28;20052;-70
2021/10/28 20:57:17;;;;;;;23.67;9.57;;;;;;;;;;10485943;28;20055;-70
2021/10/28 21:02:20;;;;;;;20.67;8.18;;;;;;;;;;10488038;28;20048;-71
2021/10/28 21:07:26;;;;;;;18.98;8.60;;;;;;;;;;10487963;28;20058;-70
2021/10/28 21:12:29;;;;;;;18.52;7.90;;;;;;;;;;10488221;28;20068;-71
2021/10/28 21:17:32;;;;;;;20.67;8.55;;;;;;;;;;10486662;28;20044;-71
2021/10/28 21:22:36;;;;;;;20.17;8.38;;;;;;;;;;10513307;28;20067;-71
2021/10/28 21:27:39;;;;;;;17.40;7.43;;;;;;;;;;10482655;28;20407;-70
2021/10/28 21:32:42;;;;;;;21.05;8.52;;;;;;;;;;10484985;28;20045;-72
2021/10/28 21:37:47;;;;;;;17.70;7.63;;;;;;;;;;10485701;28;20051;-70
2021/10/28 21:42:49;;;;;;;;;;;;;;;;;;10488911;28;20102;-70
2021/10/28 21:47:52;;;;;;;19.75;8.05;;;;;;;;;;10485979;28;19932;-69
2021/10/28 21:53:00;;;;;;;22.52;7.63;;;;;;;;;;10478678;28;20149;-73
2021/10/28 21:58:11;;;;;;;19.45;8.30;;;;;;;;;;10482522;28;20471;-72
2021/10/28 22:24:51;;;;;;;19.25;8.30;;;;;;;;;;10484560;28;20521;-71
2021/10/28 22:29:54;;;;;;;18.38;6.90;;;;;;;;;;10482773;28;20040;-70
2021/10/28 22:35:22;;;;;;;4.47;1.98;;;;;;;;;;10479922;28;20056;-72
2021/10/28 22:40:32;;;;;;;16.02;6.38;;;;;;;;;;10481194;28;20041;-72
2021/10/28 22:45:37;;;;;;;15.18;6.05;;;;;;;;;;10478310;28;20158;-70
2021/10/28 22:50:42;;;;;;;18.02;7.88;;;;;;;;;;10479542;28;20036;-71
2021/10/28 22:55:47;;;;;;;20.05;7.53;;;;;;;;;;10496385;28;20048;-71
2021/10/28 23:01:01;;;;;;;19.00;7.73;;;;;;;;;;10484550;28;20110;-70
2021/10/28 23:06:24;;;;;;;17.40;7.63;;;;;;;;;;10508727;28;20044;-71
2021/10/28 23:22:12;;;;;;;21.50;7.40;;;;;;;;;;10483362;28;20059;-72
2021/10/28 23:27:16;;;;;;;18.85;7.18;;;;;;;;;;10482797;28;20428;-70
2021/10/28 23:32:19;;;;;;;;;;;;;;;;;;10482299;28;20044;-72
2021/10/28 23:37:22;;;;;;;17.38;7.00;;;;;;;;;;10482270;28;19940;-71
2021/10/28 23:42:26;;;;;;;16.47;6.93;;;;;;;;;;10482391;28;20067;-71
2021/10/28 23:47:30;;;;;;;20.17;7.68;;;;;;;;;;10478568;28;20400;-71
2021/10/28 23:52:33;;;;;;;15.02;6.70;;;;;;;;;;10480550;28;20028;-71
2021/10/28 23:57:37;;;;;;;17.33;7.40;;;;;;;;;;10487156;28;20040;-71
